Time;durP1;ratioP1;P1;durP2;ratioP2;P2;SDS_P1;SDS_P2;PMS_P1;PMS_P2;Temp;Humidity;BMP_temperature;BMP_pressure;BME280_temperature;BME280_humidity;BME280_pressure;Samples;Min_cycle;Max_cycle;Signal;HPM_P1;HPM_P2
2021/05/29 00:04:26;;;;;;;;;;;11.70;99.90;;;;;;10361527;28;19963;-50
2021/05/29 00:09:27;;;;;;;;;;;11.70;99.90;;;;;;10357650;28;19921;-50
2021/05/29 00:14:27;;;;;;;;;;;11.60;99.90;;;;;;10360273;28;19917;-50
2021/05/29 00:19:28;;;;;;;;;;;11.40;99.90;;;;;;10356343;28;20420;-50
2021/05/29 00:24:30;;;;;;;;;;;11.30;99.90;;;;;;10359554;28;19956;-50
2021/05/29 00:29:31;;;;;;;;;;;11.30;99.90;;;;;;10358755;28;19964;-50
2021/05/29 00:34:31;;;;;;;;;;;11.20;99.90;;;;;;10356598;28;19917;-50
2021/05/29 00:39:33;;;;;;;;;;;11.20;99.90;;;;;;10352935;28;19936;-50
2021/05/29 00:44:47;;;;;;;;;;;11.20;99.90;;;;;;10359426;28;19928;-50
2021/05/29 00:49:48;;;;;;;;;;;11.30;99.90;;;;;;10355407;28;19944;-50
2021/05/29 00:54:49;;;;;;;;;;;11.20;99.90;;;;;;10358684;28;19933;-50
2021/05/29 00:59:49;;;;;;;;;;;11.10;99.90;;;;;;10357264;28;20011;-50
2021/05/29 01:04:50;;;;;;;;;;;11.10;99.90;;;;;;10362318;28;19928;-50
2021/05/29 01:09:51;;;;;;;;;;;11.00;99.90;;;;;;10355782;28;19925;-50
2021/05/29 01:14:57;;;;;;;;;;;10.90;99.90;;;;;;10357322;28;20625;-50
2021/05/29 01:19:58;;;;;;;;;;;10.90;99.90;;;;;;10353943;28;19929;-50
2021/05/29 01:24:59;;;;;;;;;;;10.80;99.90;;;;;;10356146;28;19963;-50
2021/05/29 01:30:00;;;;;;;;;;;10.80;99.90;;;;;;10360999;28;19921;-50
2021/05/29 01:35:02;;;;;;;;;;;10.70;99.90;;;;;;10355392;28;22400;-50
2021/05/29 01:40:03;;;;;;;;;;;10.60;99.90;;;;;;10350259;28;20440;-50
2021/05/29 01:45:04;;;;;;;;;;;10.60;99.90;;;;;;10358389;28;20048;-50
2021/05/29 01:50:05;;;;;;;;;;;10.50;99.90;;;;;;10353626;28;20385;-50
2021/05/29 01:55:06;;;;;;;;;;;10.40;99.90;;;;;;10351819;28;19971;-50
2021/05/29 02:00:08;;;;;;;;;;;10.30;99.90;;;;;;10356302;28;20303;-50
2021/05/29 02:05:28;;;;;;;;;;;10.20;99.90;;;;;;10357550;28;19924;-50
2021/05/29 02:10:30;;;;;;;;;;;10.20;99.90;;;;;;10358951;28;20438;-50
2021/05/29 02:15:35;;;;;;;;;;;10.10;99.90;;;;;;10353076;28;20453;-50
2021/05/29 02:20:50;;;;;;;;;;;10.00;99.90;;;;;;10361530;28;19961;-50
2021/05/29 02:25:52;;;;;;;;;;;10.00;99.90;;;;;;10351765;28;19925;-50
2021/05/29 02:30:53;;;;;;;;;;;9.90;99.90;;;;;;10357789;28;20066;-50
2021/05/29 02:35:54;;;;;;;;;;;9.80;99.90;;;;;;10345860;28;19991;-49
2021/05/29 02:40:56;;;;;;;;;;;9.80;99.90;;;;;;10353264;28;19921;-50
2021/05/29 02:45:56;;;;;;;;;;;9.70;99.90;;;;;;10353109;28;19917;-50
2021/05/29 02:50:57;;;;;;;;;;;9.70;99.90;;;;;;10353173;28;20182;-50
2021/05/29 02:55:58;;;;;;;;;;;9.70;99.90;;;;;;10346222;28;22292;-50
2021/05/29 03:00:58;;;;;;;;;;;9.70;99.90;;;;;;10353338;28;20447;-50
2021/05/29 03:05:59;;;;;;;;;;;9.70;99.90;;;;;;10357738;28;20358;-50
2021/05/29 03:11:00;;;;;;;;;;;9.60;99.90;;;;;;10356509;28;20399;-50
2021/05/29 03:16:00;;;;;;;;;;;9.50;99.90;;;;;;10360321;28;19932;-50
2021/05/29 03:21:01;;;;;;;;;;;9.50;99.90;;;;;;10350908;28;20482;-50
2021/05/29 03:26:02;;;;;;;;;;;9.40;99.90;;;;;;10352626;28;19926;-50
2021/05/29 03:31:02;;;;;;;;;;;9.50;99.90;;;;;;10352453;28;20246;-50
2021/05/29 03:36:03;;;;;;;;;;;9.40;99.90;;;;;;10349093;28;19924;-50
2021/05/29 03:41:04;;;;;;;;;;;9.50;99.90;;;;;;10352183;28;20020;-50
2021/05/29 03:46:05;;;;;;;;;;;9.40;99.90;;;;;;10352130;28;19921;-50
2021/05/29 03:51:05;;;;;;;;;;;9.40;99.90;;;;;;10351728;28;19973;-50
2021/05/29 03:56:06;;;;;;;;;;;9.40;99.90;;;;;;10350887;28;19924;-50
2021/05/29 04:01:07;;;;;;;;;;;9.30;99.90;;;;;;10350566;28;19933;-50
2021/05/29 04:06:07;;;;;;;;;;;9.30;99.90;;;;;;10350602;28;19917;-50
2021/05/29 04:11:08;;;;;;;;;;;9.30;99.90;;;;;;10352991;28;19921;-50
2021/05/29 04:16:09;;;;;;;;;;;9.30;99.90;;;;;;10374312;28;19944;-50
2021/05/29 04:21:09;;;;;;;;;;;9.20;99.90;;;;;;10362918;28;19955;-50
2021/05/29 04:26:10;;;;;;;;;;;9.10;99.90;;;;;;10362574;28;19929;-50
2021/05/29 04:31:11;;;;;;;;;;;9.00;99.90;;;;;;10360222;28;20344;-50
2021/05/29 04:36:11;;;;;;;;;;;9.00;99.90;;;;;;10361195;28;20012;-50
2021/05/29 04:41:12;;;;;;;;;;;9.10;99.90;;;;;;10365678;28;19933;-50
2021/05/29 04:46:13;;;;;;;;;;;9.30;99.90;;;;;;10352855;28;19917;-50
2021/05/29 04:51:16;;;;;;;;;;;9.40;99.90;;;;;;10364658;28;20052;-50
2021/05/29 04:56:17;;;;;;;;;;;9.70;99.90;;;;;;10354288;28;19917;-50
2021/05/29 05:01:18;;;;;;;;;;;9.90;99.90;;;;;;10357294;28;19930;-50
2021/05/29 05:06:18;;;;;;;;;;;10.20;99.90;;;;;;10352127;28;20016;-50
2021/05/29 05:11:19;;;;;;;;;;;10.50;99.90;;;;;;10351539;28;20226;-50
2021/05/29 05:16:20;;;;;;;;;;;10.70;99.90;;;;;;10352803;28;19921;-50
2021/05/29 05:21:21;;;;;;;;;;;10.90;99.90;;;;;;10355613;28;19921;-50
2021/05/29 05:26:22;;;;;;;;;;;11.20;99.90;;;;;;10352387;28;19936;-50
2021/05/29 05:31:23;;;;;;;;;;;11.50;99.90;;;;;;10351819;28;19963;-50
2021/05/29 05:36:23;;;;;;;;;;;11.80;99.90;;;;;;10351365;28;19948;-50
2021/05/29 05:41:25;;;;;;;;;;;12.00;99.90;;;;;;10355133;28;19925;-50
2021/05/29 05:46:25;;;;;;;;;;;12.10;99.90;;;;;;10354482;28;19926;-50
2021/05/29 05:51:29;;;;;;;;;;;12.30;99.90;;;;;;10354630;28;19932;-50
2021/05/29 05:56:30;;;;;;;;;;;12.50;99.90;;;;;;10354706;28;19914;-50
2021/05/29 06:01:31;;;;;;;;;;;12.80;99.90;;;;;;10354954;28;19965;-50
2021/05/29 06:06:32;;;;;;;;;;;13.00;99.90;;;;;;10352942;28;21807;-51
2021/05/29 06:11:32;;;;;;;;;;;13.10;99.90;;;;;;10351197;28;20089;-50
2021/05/29 06:21:53;;;;;;;;;;;13.20;99.90;;;;;;10356232;28;19936;-50
2021/05/29 06:26:54;;;;;;;;;;;13.40;99.90;;;;;;10359137;28;19934;-51
2021/05/29 06:31:55;;;;;;;;;;;13.50;99.90;;;;;;10359586;28;19948;-50
2021/05/29 06:36:57;;;;;;;;;;;13.60;99.90;;;;;;10316075;28;20426;-50
2021/05/29 06:41:58;;;;;;;;;;;13.60;99.90;;;;;;10348941;28;19936;-50
2021/05/29 06:46:58;;;;;;;;;;;13.70;99.90;;;;;;10355758;28;19952;-50
2021/05/29 06:52:03;;;;;;;;;;;13.80;99.90;;;;;;10355057;28;19975;-51
2021/05/29 07:02:23;;;;;;;;;;;13.90;99.90;;;;;;10355320;28;20031;-50
2021/05/29 07:07:24;;;;;;;;;;;13.90;99.90;;;;;;10355913;28;19925;-50
2021/05/29 07:12:24;;;;;;;;;;;13.80;99.90;;;;;;10351043;28;20438;-50
2021/05/29 07:17:31;;;;;;;;;;;13.80;99.90;;;;;;10342184;28;20079;-50
2021/05/29 07:22:34;;;;;;;;;;;13.90;99.90;;;;;;10362100;28;19932;-50
2021/05/29 07:27:34;;;;;;;;;;;14.00;99.90;;;;;;10357474;28;19933;-50
2021/05/29 07:32:35;;;;;;;;;;;14.00;99.90;;;;;;10351882;28;19913;-50
2021/05/29 07:37:36;;;;;;;;;;;14.10;99.90;;;;;;10319231;28;19926;-50
2021/05/29 07:42:37;;;;;;;;;;;14.10;99.90;;;;;;10353359;28;19937;-50
2021/05/29 07:47:38;;;;;;;;;;;14.10;99.90;;;;;;10349955;28;20040;-51
2021/05/29 07:52:39;;;;;;;;;;;14.00;99.90;;;;;;10366174;28;19921;-50
2021/05/29 07:57:39;;;;;;;;;;;14.00;99.90;;;;;;10361536;28;19919;-50
2021/05/29 08:02:40;;;;;;;;;;;14.00;99.90;;;;;;10359300;28;20281;-50
2021/05/29 08:07:41;;;;;;;;;;;14.00;99.90;;;;;;10358493;28;19918;-50
2021/05/29 08:12:42;;;;;;;;;;;14.00;99.90;;;;;;10362378;28;20345;-50
2021/05/29 08:17:43;;;;;;;;;;;13.80;99.90;;;;;;10363941;28;19925;-51
2021/05/29 08:22:43;;;;;;;;;;;13.90;99.90;;;;;;10360418;28;19948;-51
2021/05/29 08:27:44;;;;;;;;;;;14.00;99.90;;;;;;10361116;28;20444;-51
2021/05/29 08:32:45;;;;;;;;;;;14.00;99.90;;;;;;10361797;28;19918;-52
2021/05/29 08:37:46;;;;;;;;;;;14.10;99.90;;;;;;10367976;28;19925;-51
2021/05/29 08:42:47;;;;;;;;;;;14.30;99.90;;;;;;10359105;28;19934;-51
2021/05/29 08:47:48;;;;;;;;;;;14.50;99.90;;;;;;10362056;28;19967;-51
2021/05/29 08:52:48;;;;;;;;;;;14.50;99.90;;;;;;10360366;28;19921;-51
2021/05/29 08:57:49;;;;;;;;;;;14.70;99.90;;;;;;10376049;28;19998;-52
2021/05/29 09:02:58;;;;;;;;;;;14.80;99.90;;;;;;10363008;28;19925;-52
2021/05/29 09:08:26;;;;;;;;;;;14.90;99.90;;;;;;10359897;28;19917;-52
2021/05/29 09:13:27;;;;;;;;;;;15.20;99.90;;;;;;10360681;28;19918;-52
2021/05/29 09:18:45;;;;;;;;;;;15.30;99.90;;;;;;10369226;28;19971;-52
2021/05/29 09:23:50;;;;;;;;;;;15.50;99.90;;;;;;10360999;28;19926;-52
2021/05/29 09:28:51;;;;;;;;;;;15.60;99.90;;;;;;10358624;28;19934;-52
2021/05/29 09:33:56;;;;;;;;;;;15.60;99.90;;;;;;10372566;28;19913;-52
2021/05/29 09:39:04;;;;;;;;;;;15.50;99.90;;;;;;10365885;28;19921;-52
2021/05/29 09:44:06;;;;;;;;;;;15.40;99.90;;;;;;10359402;28;20444;-52
2021/05/29 09:49:06;;;;;;;;;;;15.70;99.90;;;;;;10361814;28;20312;-52
2021/05/29 09:54:08;;;;;;;;;;;15.70;99.90;;;;;;10362553;28;19929;-52
2021/05/29 09:59:08;;;;;;;;;;;15.80;99.90;;;;;;10356170;28;19917;-52
2021/05/29 10:04:10;;;;;;;;;;;16.20;99.90;;;;;;10361023;28;19922;-52
2021/05/29 10:09:11;;;;;;;;;;;16.30;99.90;;;;;;10355786;28;19976;-52
2021/05/29 10:14:11;;;;;;;;;;;16.50;99.90;;;;;;10353936;28;19959;-52
2021/05/29 10:19:13;;;;;;;;;;;16.80;99.90;;;;;;10353606;28;19929;-52
2021/05/29 10:24:13;;;;;;;;;;;16.60;99.90;;;;;;10366122;28;19940;-52
2021/05/29 10:29:14;;;;;;;;;;;16.30;99.90;;;;;;10356243;28;20146;-52
2021/05/29 10:34:15;;;;;;;;;;;16.40;99.90;;;;;;10353594;28;19959;-52
2021/05/29 10:39:22;;;;;;;;;;;16.80;99.90;;;;;;10361407;28;19929;-52
2021/05/29 10:44:26;;;;;;;;;;;16.80;99.90;;;;;;10352713;28;19963;-52
2021/05/29 10:49:45;;;;;;;;;;;16.70;99.90;;;;;;10353806;28;19925;-52
2021/05/29 10:55:06;;;;;;;;;;;16.90;99.90;;;;;;10356577;28;19936;-53
2021/05/29 11:00:07;;;;;;;;;;;16.60;99.90;;;;;;10334872;28;19925;-52
2021/05/29 11:05:29;;;;;;;;;;;16.90;99.90;;;;;;10366162;28;19933;-52
2021/05/29 11:10:30;;;;;;;;;;;16.90;99.90;;;;;;10364325;28;20016;-52
2021/05/29 11:15:49;;;;;;;;;;;17.00;99.90;;;;;;10363079;28;20465;-52
2021/05/29 11:21:05;;;;;;;;;;;17.10;99.90;;;;;;10355543;28;19929;-52
2021/05/29 11:26:07;;;;;;;;;;;16.90;99.90;;;;;;10380899;28;20380;-53
2021/05/29 11:31:07;;;;;;;;;;;17.10;99.90;;;;;;10379296;28;19929;-52
2021/05/29 11:36:08;;;;;;;;;;;17.00;99.90;;;;;;10378401;28;20027;-52
2021/05/29 11:41:12;;;;;;;;;;;17.30;99.90;;;;;;10371499;28;19935;-52
2021/05/29 11:46:13;;;;;;;;;;;17.60;99.90;;;;;;10379561;28;19917;-52
2021/05/29 11:51:17;;;;;;;;;;;17.70;99.90;;;;;;10371958;28;19921;-52
2021/05/29 11:56:19;;;;;;;;;;;17.70;99.90;;;;;;10370761;28;19924;-52
2021/05/29 12:01:30;;;;;;;;;;;17.30;99.90;;;;;;10366356;28;19921;-52
2021/05/29 12:06:32;;;;;;;;;;;17.40;99.90;;;;;;10177626;28;20044;-52
2021/05/29 12:11:33;;;;;;;;;;;17.50;99.90;;;;;;10168938;28;19917;-52
2021/05/29 12:16:38;;;;;;;;;;;17.80;99.90;;;;;;10162111;28;20549;-52
2021/05/29 12:21:43;;;;;;;;;;;18.10;99.90;;;;;;10169858;28;19971;-52
2021/05/29 12:26:45;;;;;;;;;;;18.30;99.90;;;;;;10161161;28;21488;-52
2021/05/29 12:31:49;;;;;;;;;;;18.00;99.90;;;;;;10302952;28;20167;-52
2021/05/29 12:36:52;;;;;;;;;;;17.70;99.90;;;;;;10367779;28;19939;-52
2021/05/29 12:41:54;;;;;;;;;;;18.20;99.90;;;;;;10366906;28;20339;-52
2021/05/29 12:47:14;;;;;;;;;;;18.20;99.90;;;;;;10365372;28;20281;-52
2021/05/29 12:52:22;;;;;;;;;;;18.50;99.90;;;;;;10361357;28;20313;-52
2021/05/29 12:57:33;;;;;;;;;;;18.70;99.90;;;;;;10362872;28;20298;-53
2021/05/29 13:02:41;;;;;;;;;;;18.30;99.90;;;;;;10361035;28;19921;-52
2021/05/29 13:07:43;;;;;;;;;;;18.10;99.90;;;;;;10360563;28;19922;-52
2021/05/29 13:13:02;;;;;;;;;;;18.20;99.90;;;;;;10358917;28;19917;-52
2021/05/29 13:18:23;;;;;;;;;;;18.90;99.90;;;;;;10361387;28;19920;-53
2021/05/29 13:23:24;;;;;;;;;;;19.90;99.90;;;;;;10354400;28;19921;-53
2021/05/29 13:28:24;;;;;;;;;;;19.70;99.90;;;;;;10364802;28;20380;-52
2021/05/29 13:33:25;;;;;;;;;;;18.70;99.90;;;;;;10357549;28;19929;-52
2021/05/29 13:38:25;;;;;;;;;;;18.80;99.90;;;;;;10355517;28;19928;-52
2021/05/29 13:43:26;;;;;;;;;;;18.30;99.90;;;;;;10356017;28;20304;-52
2021/05/29 13:48:27;;;;;;;;;;;18.30;99.90;;;;;;10352727;28;19925;-52
2021/05/29 13:53:27;;;;;;;;;;;17.80;99.90;;;;;;10359199;28;19968;-52
2021/05/29 13:58:28;;;;;;;;;;;18.00;99.90;;;;;;10354462;28;19921;-52
2021/05/29 14:03:29;;;;;;;;;;;17.70;99.90;;;;;;10355949;28;19933;-52
2021/05/29 14:08:29;;;;;;;;;;;17.60;99.90;;;;;;10362522;28;19932;-52
2021/05/29 14:13:30;;;;;;;;;;;17.20;99.90;;;;;;10374757;28;19932;-52
2021/05/29 14:18:30;;;;;;;;;;;17.20;99.90;;;;;;10355996;28;20046;-52
2021/05/29 14:23:31;;;;;;;;;;;16.80;99.90;;;;;;10365250;28;19926;-52
2021/05/29 14:28:32;;;;;;;;;;;17.10;99.90;;;;;;10357515;28;19926;-52
2021/05/29 14:33:34;;;;;;;;;;;17.50;99.90;;;;;;10362573;28;19921;-52
2021/05/29 14:38:35;;;;;;;;;;;17.70;99.90;;;;;;10368993;28;19918;-52
2021/05/29 14:43:35;;;;;;;;;;;17.30;99.90;;;;;;10351477;28;19932;-52
2021/05/29 14:48:38;;;;;;;;;;;17.00;99.90;;;;;;10354639;28;20101;-52
2021/05/29 14:53:38;;;;;;;;;;;16.70;99.90;;;;;;10359310;28;19917;-52
2021/05/29 14:58:39;;;;;;;;;;;16.60;99.90;;;;;;10361174;28;20456;-52
2021/05/29 15:03:43;;;;;;;;;;;17.00;99.90;;;;;;10357929;28;19937;-52
2021/05/29 15:08:43;;;;;;;;;;;16.80;99.90;;;;;;10366160;28;19917;-52
2021/05/29 15:13:44;;;;;;;;;;;16.80;99.90;;;;;;10362841;28;19921;-52
2021/05/29 15:18:45;;;;;;;;;;;17.30;99.90;;;;;;10362972;28;19921;-52
2021/05/29 15:23:51;;;;;;;;;;;17.20;99.90;;;;;;10372818;28;19936;-52
2021/05/29 15:28:53;;;;;;;;;;;17.10;99.90;;;;;;10361293;28;19961;-52
2021/05/29 15:33:53;;;;;;;;;;;16.80;99.90;;;;;;10370268;28;20011;-52
2021/05/29 15:38:54;;;;;;;;;;;16.60;99.90;;;;;;10353251;28;19937;-52
2021/05/29 15:43:58;;;;;;;;;;;16.50;99.90;;;;;;10356152;28;20304;-52
2021/05/29 15:48:58;;;;;;;;;;;16.50;99.90;;;;;;10371982;28;19932;-52
2021/05/29 15:53:59;;;;;;;;;;;16.50;99.90;;;;;;10364000;28;19957;-52
2021/05/29 15:59:02;;;;;;;;;;;16.70;99.90;;;;;;10358148;28;20293;-52
2021/05/29 16:04:03;;;;;;;;;;;16.70;99.90;;;;;;10370649;28;20397;-52
2021/05/29 16:09:04;;;;;;;;;;;16.60;99.90;;;;;;10360822;28;19921;-52
2021/05/29 16:14:04;;;;;;;;;;;16.60;99.90;;;;;;10368883;28;19925;-52
2021/05/29 16:19:05;;;;;;;;;;;16.40;99.90;;;;;;10373456;28;19944;-52
2021/05/29 16:24:08;;;;;;;;;;;16.30;99.90;;;;;;10359478;28;20031;-52
2021/05/29 16:29:10;;;;;;;;;;;16.40;99.90;;;;;;10361435;28;19925;-52
2021/05/29 16:34:10;;;;;;;;;;;16.30;99.90;;;;;;10360544;28;20354;-52
2021/05/29 16:39:11;;;;;;;;;;;16.30;99.90;;;;;;10386486;28;19917;-52
2021/05/29 16:44:17;;;;;;;;;;;16.30;99.90;;;;;;10379822;28;20000;-52
2021/05/29 16:49:18;;;;;;;;;;;16.20;99.90;;;;;;10374650;28;20344;-52
2021/05/29 16:54:19;;;;;;;;;;;15.90;99.90;;;;;;10377243;28;19922;-52
2021/05/29 16:59:20;;;;;;;;;;;15.70;99.90;;;;;;10379377;28;19972;-52
2021/05/29 17:04:20;;;;;;;;;;;15.80;99.90;;;;;;10365776;28;19921;-52
2021/05/29 17:09:24;;;;;;;;;;;15.80;99.90;;;;;;10359158;28;19940;-52
2021/05/29 17:14:25;;;;;;;;;;;15.60;99.90;;;;;;10370275;28;19921;-52
2021/05/29 17:19:26;;;;;;;;;;;15.50;99.90;;;;;;10358286;28;19921;-52
2021/05/29 17:24:26;;;;;;;;;;;15.40;99.90;;;;;;10370062;28;19936;-52
2021/05/29 17:29:27;;;;;;;;;;;15.20;99.90;;;;;;10358155;28;19932;-51
2021/05/29 17:34:28;;;;;;;;;;;15.20;99.90;;;;;;10356290;28;19921;-52
2021/05/29 17:39:28;;;;;;;;;;;15.20;99.90;;;;;;10371367;28;20162;-52
2021/05/29 17:44:29;;;;;;;;;;;15.00;99.90;;;;;;10357906;28;19925;-52
2021/05/29 17:49:30;;;;;;;;;;;14.90;99.90;;;;;;10354842;28;19928;-52
2021/05/29 17:54:30;;;;;;;;;;;14.90;99.90;;;;;;10366293;28;20389;-52
2021/05/29 18:05:11;;;;;;;;;;;14.60;99.90;;;;;;10265297;28;20437;-52
2021/05/29 18:10:12;;;;;;;;;;;14.60;99.90;;;;;;10337631;28;20008;-52
2021/05/29 18:15:13;;;;;;;;;;;14.50;99.90;;;;;;10383122;28;20428;-51
2021/05/29 18:20:14;;;;;;;;;;;14.40;99.90;;;;;;10368057;28;19935;-52
2021/05/29 18:25:15;;;;;;;;;;;14.50;99.90;;;;;;10383101;28;19975;-52
2021/05/29 18:30:16;;;;;;;;;;;14.30;99.90;;;;;;10362015;28;19929;-52
2021/05/29 18:35:16;;;;;;;;;;;14.10;99.90;;;;;;10365798;28;19919;-52
2021/05/29 18:40:17;;;;;;;;;;;13.90;99.90;;;;;;10356759;28;19936;-52
2021/05/29 18:45:19;;;;;;;;;;;13.90;99.90;;;;;;10358831;28;19925;-52
2021/05/29 18:50:20;;;;;;;;;;;13.80;99.90;;;;;;10361769;28;19949;-52
2021/05/29 18:55:21;;;;;;;;;;;13.80;99.90;;;;;;10372098;28;20012;-52
2021/05/29 19:05:56;;;;;;;;;;;13.80;99.90;;;;;;10314582;28;20167;-52
2021/05/29 19:10:59;;;;;;;;;;;13.60;99.90;;;;;;10328237;28;19925;-52
2021/05/29 19:16:01;;;;;;;;;;;13.90;99.90;;;;;;10370750;28;20359;-52
2021/05/29 19:21:02;;;;;;;;;;;13.80;99.90;;;;;;10375329;28;20451;-52
2021/05/29 19:26:35;;;;;;;;;;;13.80;99.90;;;;;;10353911;28;19979;-52
2021/05/29 19:31:39;;;;;;;;;;;13.60;99.90;;;;;;10358636;28;20392;-52
2021/05/29 19:42:00;;;;;;;;;;;13.50;99.90;;;;;;10364392;28;19932;-52
2021/05/29 20:13:21;;;;;;;;;;;13.10;99.90;;;;;;10368564;28;19917;-52
2021/05/29 20:29:00;;;;;;;;;;;12.80;99.90;;;;;;10365619;28;19926;-52
2021/05/29 20:34:58;;;;;;;;;;;12.80;99.90;;;;;;10367056;28;20377;-52
2021/05/29 20:39:23;;;;;;;;;;;12.90;99.90;;;;;;10367514;28;19932;-52
2021/05/29 20:44:27;;;;;;;;;;;12.70;99.90;;;;;;10376852;28;19939;-52
2021/05/29 20:49:28;;;;;;;;;;;12.60;99.90;;;;;;10383224;28;19917;-52
2021/05/29 20:54:29;;;;;;;;;;;12.60;99.90;;;;;;10361553;28;20261;-52
2021/05/29 20:59:30;;;;;;;;;;;12.60;99.90;;;;;;10376763;28;19923;-52
2021/05/29 21:04:35;;;;;;;;;;;12.60;99.90;;;;;;10357940;28;19929;-52
2021/05/29 21:09:37;;;;;;;;;;;12.50;99.90;;;;;;10365899;28;19924;-52
2021/05/29 21:24:57;;;;;;;;;;;12.30;99.90;;;;;;10359516;28;19937;-52
2021/05/29 21:29:58;;;;;;;;;;;12.30;99.90;;;;;;10369209;28;19933;-52
2021/05/29 21:34:58;;;;;;;;;;;12.20;99.90;;;;;;10358512;28;20044;-52
2021/05/29 21:39:59;;;;;;;;;;;12.00;99.90;;;;;;10361133;28;20363;-52
2021/05/29 21:50:20;;;;;;;;;;;12.10;99.90;;;;;;10326365;28;19924;-52
2021/05/29 21:55:21;;;;;;;;;;;12.10;99.90;;;;;;10366008;28;19923;-52
2021/05/29 22:00:44;;;;;;;;;;;12.00;99.90;;;;;;10360604;28;19964;-52
2021/05/29 22:05:45;;;;;;;;;;;12.00;99.90;;;;;;10357389;28;20371;-52
2021/05/29 22:31:48;;;;;;;;;;;11.90;99.90;;;;;;10357347;28;19938;-51
2021/05/29 22:36:49;;;;;;;;;;;11.90;99.90;;;;;;10357068;28;19928;-51
2021/05/29 22:41:50;;;;;;;;;;;11.90;99.90;;;;;;10358451;28;19936;-52
2021/05/29 22:46:51;;;;;;;;;;;11.90;99.90;;;;;;10354527;28;19924;-52
2021/05/29 22:51:52;;;;;;;;;;;11.80;99.90;;;;;;10359371;28;19921;-51
2021/05/29 22:56:54;;;;;;;;;;;11.80;99.90;;;;;;10357056;28;19932;-52
2021/05/29 23:01:55;;;;;;;;;;;11.70;99.90;;;;;;10359365;28;20373;-52
2021/05/29 23:06:55;;;;;;;;;;;11.70;99.90;;;;;;10354611;28;19929;-51
2021/05/29 23:11:56;;;;;;;;;;;11.80;99.90;;;;;;10360777;28;19967;-52
2021/05/29 23:16:57;;;;;;;;;;;11.70;99.90;;;;;;10351354;28;20982;-52
2021/05/29 23:21:57;;;;;;;;;;;11.60;99.90;;;;;;10349580;28;20018;-52
2021/05/29 23:26:58;;;;;;;;;;;11.50;99.90;;;;;;10353305;28;20278;-51
2021/05/29 23:31:59;;;;;;;;;;;11.50;99.90;;;;;;10356000;28;19928;-52
2021/05/29 23:36:59;;;;;;;;;;;11.60;99.90;;;;;;10358225;28;19975;-52
2021/05/29 23:42:00;;;;;;;;;;;11.40;99.90;;;;;;10356629;28;19928;-52
2021/05/29 23:47:00;;;;;;;;;;;11.30;99.90;;;;;;10366127;28;20324;-51
2021/05/29 23:52:01;;;;;;;;;;;11.30;99.90;;;;;;10356916;28;19971;-52
2021/05/29 23:57:02;;;;;;;;;;;11.20;99.90;;;;;;10351828;28;19940;-52
